Terminal Aerodrome Forecast
Issued by NWS

Home | Current Version | Previous Version | Graphics & Text | Print | Product List | Glossary On
Versions: 1 2 3 4 5 6 7 8 9 10 11 12 13 14 15 16 17 18 19 20 21 22 23
000
FTUS42 KMHX 310546
TAFOAJ
TAF
KOAJ 310546Z 3106/0106 00000KT P6SM BKN130
     FM310900 20003KT 4SM BR BKN250
     FM311300 36004KT P6SM SCT040 BKN250
     FM311900 35005KT P6SM VCTS BKN050CB
     FM010000 15003KT P6SM VCSH SCT040 BKN250
      AMD LTD TO CLD VIS AND WIND=

USA.gov is the U.S. government's official web portal to all federal, state and local government web resources and services.